Port Lions, AK (99550)

12:42 PM AKST on February 14, 2016 (GMT -0900)
Kodiak | | Change Station
CLOSE
Current Station
Airport
Location: Kodiak,
Elevation: 112 ft
Nearby Weather Stations

Elev 112 ft 57.75 °N, 152.49 °W | Updated 49 minutes ago

Mostly Cloudy
Mostly Cloudy
38 °F
Feels Like 31 °F
N
10
Wind Variable Wind from South

Today
High -- | Low -- °F
--% Chance of Precip.
Yesterday
High -- | Low -- °F
Precip. -- in
Pressure 29.23 in
Visibility 10.0 miles
Clouds Few 2000 ft
Mostly Cloudy 5500 ft
Mostly Cloudy 8000 ft
Windchill 31 °F
Dew Point 34 °F
Humidity 86%
Rainfall 0.18 in
Snow Depth Not available.
8:45 AM 6:07 PM
Waxing Crescent, 45% visible
METAR PADQ 142053Z 19009KT 10SM FEW020 BKN055 BKN080 03/01 A2922 RMK AO2 SLP897 T00330011 53031 $
Pressure 29.23 in
Visibility 10.0 miles
Clouds Few 2000 ft
Mostly Cloudy 5500 ft
Mostly Cloudy 8000 ft
Windchill 31 °F
Dew Point 34 °F
Humidity 86%
Rainfall 0.18 in
Snow Depth Not available.
8:45 AM 6:07 PM
Waxing Crescent, 45% visible
METAR PADQ 142053Z 19009KT 10SM FEW020 BKN055 BKN080 03/01 A2922 RMK AO2 SLP897 T00330011 53031 $

10-Day Weather Forecast

Almanac

Astronomy

Feb. 14, 2016 Rise Set
Actual Time
Civil Twilight
Nautical Twilight
Astronomical Twilight
Moon
Length of Visible Light
Length of Day
Tomorrow will be .
, % of the Moon is Illuminated

Today's Extremes

State Highs State Lows

Community

WunderPhotos

Upload Photos

1,892,890 photos uploaded!

WunderBlog® & News

Nearby

Air Quality

  Air Quality AQ Index Pollutant
Not available.

Snow Depth

Station Depth Elevation

Earthquake Activity

City Distance Mag. Time & Date
Minimum magnitude displayed is 2.5.

Coastal Water Temperatures

Place Temperature

Stations

Nearby Weather Stations

Station Location Temp. Windchill Dew Point Humidity Wind Precip. Elev Updated Type
                   

Watches & Warnings

There are currently no watches in effect.